createdAt,value
2018-09-22T00:02:28.046Z,99191.69
2018-09-22T00:04:56.335Z,99195.20
2018-09-22T00:07:24.659Z,99189.54
2018-09-22T00:09:52.932Z,99196.77
2018-09-22T00:12:21.362Z,99197.12
2018-09-22T00:14:49.638Z,99203.88
2018-09-22T00:17:17.946Z,99198.66
2018-09-22T00:19:46.250Z,99206.15
2018-09-22T00:22:14.619Z,99216.77
2018-09-22T00:24:42.881Z,99212.41
2018-09-22T00:27:11.276Z,99214.70
2018-09-22T00:29:39.548Z,99225.33
2018-09-22T00:32:07.913Z,99227.59
2018-09-22T00:34:36.435Z,99224.23
2018-09-22T00:37:04.741Z,99231.70
2018-09-22T00:39:33.042Z,99225.91
2018-09-22T00:42:01.382Z,99230.87
2018-09-22T00:44:29.681Z,99236.53
2018-09-22T00:46:58.001Z,99231.34
2018-09-22T00:49:26.282Z,99228.69
2018-09-22T00:51:54.566Z,99224.33
2018-09-22T00:54:22.930Z,99233.62
2018-09-22T00:56:51.238Z,99232.80
2018-09-22T00:59:19.506Z,99233.73
2018-09-22T01:01:47.814Z,99234.59
2018-09-22T01:04:16.082Z,99236.39
2018-09-22T01:06:44.375Z,99240.88
2018-09-22T01:09:12.715Z,99243.53
2018-09-22T01:11:40.993Z,99247.98
2018-09-22T01:14:09.378Z,99243.65
2018-09-22T01:16:37.942Z,99241.00
2018-09-22T01:19:06.234Z,99246.30
2018-09-22T01:21:34.546Z,99252.55
2018-09-22T01:24:02.829Z,99256.53
2018-09-22T01:26:31.090Z,99258.84
2018-09-22T01:28:59.330Z,99261.84
2018-09-22T01:31:27.586Z,99252.20
2018-09-22T01:33:55.870Z,99251.83
2018-09-22T01:36:24.119Z,99255.80
2018-09-22T01:38:52.479Z,99262.44
2018-09-22T01:41:20.763Z,99269.07
2018-09-22T01:43:49.033Z,99263.88
2018-09-22T01:46:17.360Z,99271.72
2018-09-22T01:48:45.618Z,99267.74
2018-09-22T01:51:13.993Z,99269.69
2018-09-22T01:54:01.378Z,99276.68
2018-09-22T01:56:29.666Z,99284.37
2018-09-22T01:58:57.946Z,99279.92
2018-09-22T02:01:26.214Z,99287.41
2018-09-22T02:03:54.545Z,99289.21
2018-09-22T02:06:22.834Z,99283.55
2018-09-22T02:08:51.186Z,99286.20
2018-09-22T02:11:19.550Z,99288.98
2018-09-22T02:13:47.907Z,99287.53
2018-09-22T02:16:16.336Z,99293.78
2018-09-22T02:18:44.663Z,99301.27
2018-09-22T02:21:12.962Z,99299.59
2018-09-22T02:23:41.342Z,99305.37
2018-09-22T02:26:09.679Z,99297.88
2018-09-22T02:28:38.079Z,99303.69
2018-09-22T02:31:06.427Z,99314.30
2018-09-22T02:33:34.742Z,99311.27
2018-09-22T02:36:03.116Z,99317.90
2018-09-22T02:38:31.482Z,99323.20
2018-09-22T02:40:59.770Z,99317.90
2018-09-22T02:43:28.162Z,99319.61
2018-09-22T02:45:56.541Z,99325.50
2018-09-22T02:48:24.868Z,99330.42
2018-09-22T02:50:53.143Z,99329.61
2018-09-22T02:53:21.478Z,99320.41
2018-09-22T02:55:49.812Z,99324.77
2018-09-22T02:58:18.094Z,99318.61
2018-09-22T03:00:46.364Z,99318.25
2018-09-22T03:03:14.686Z,99319.58
2018-09-22T03:05:43.045Z,99322.70
2018-09-22T03:08:11.398Z,99332.46
2018-09-22T03:10:39.659Z,99327.27
2018-09-22T03:13:07.966Z,99336.55
2018-09-22T03:15:36.287Z,99338.74
2018-09-22T03:18:04.571Z,99338.86
2018-09-22T03:20:32.892Z,99335.81
2018-09-22T03:23:01.222Z,99327.86
2018-09-22T03:25:29.506Z,99319.43
2018-09-22T03:27:57.928Z,99323.88
2018-09-22T03:30:26.210Z,99345.10
2018-09-22T03:32:54.505Z,99344.75
2018-09-22T03:35:22.766Z,99352.36
2018-09-22T03:37:51.518Z,99337.77
2018-09-22T03:40:19.822Z,99345.34
2018-09-22T03:42:48.111Z,99350.64
2018-09-22T03:45:16.418Z,99340.53
2018-09-22T03:47:44.738Z,99350.29
2018-09-22T03:50:13.042Z,99352.55
2018-09-22T03:52:41.435Z,99353.05
2018-09-22T03:55:09.737Z,99354.38
2018-09-22T03:57:38.019Z,99351.73
2018-09-22T04:00:07.287Z,99346.55
2018-09-22T04:02:35.558Z,99345.69
2018-09-22T04:05:03.963Z,99348.34
2018-09-22T04:07:32.294Z,99349.20
2018-09-22T04:10:00.631Z,99336.88
2018-09-22T04:12:28.954Z,99340.50
2018-09-22T04:14:57.262Z,99343.50
2018-09-22T04:17:25.730Z,99340.11
2018-09-22T04:19:54.025Z,99343.27
2018-09-22T04:22:22.324Z,99348.57
2018-09-22T04:24:50.613Z,99357.36
2018-09-22T04:27:18.879Z,99361.83
2018-09-22T04:29:47.200Z,99364.95
2018-09-22T04:32:15.479Z,99361.95
2018-09-22T04:34:43.776Z,99365.93
2018-09-22T04:37:12.081Z,99384.11
2018-09-22T04:39:40.416Z,99375.80
2018-09-22T04:42:08.694Z,99379.78
2018-09-22T04:44:37.003Z,99392.53
2018-09-22T04:47:05.314Z,99390.00
2018-09-22T04:49:33.638Z,99389.17
2018-09-22T04:52:01.927Z,99385.20
2018-09-22T04:54:30.220Z,99380.36
2018-09-22T04:56:59.295Z,99391.44
2018-09-22T04:59:27.610Z,99388.44
2018-09-22T05:01:55.897Z,99393.85
2018-09-22T05:04:24.183Z,99401.42
2018-09-22T05:06:52.575Z,99401.42
2018-09-22T05:09:20.921Z,99402.75
2018-09-22T05:11:49.214Z,99406.72
2018-09-22T05:14:17.534Z,99410.70
2018-09-22T05:16:45.866Z,99408.05
2018-09-22T05:19:14.160Z,99413.86
2018-09-22T05:21:42.471Z,99414.33
2018-09-22T05:24:10.811Z,99418.77
2018-09-22T05:26:39.119Z,99424.58
2018-09-22T05:29:07.507Z,99428.56
2018-09-22T05:31:35.795Z,99429.50
2018-09-22T05:34:04.128Z,99434.80
2018-09-22T05:36:32.448Z,99436.23
2018-09-22T05:39:01.531Z,99441.08
2018-09-22T05:41:29.815Z,99436.71
2018-09-22T05:43:58.147Z,99440.69
2018-09-22T05:46:26.490Z,99445.05
2018-09-22T05:48:54.810Z,99457.56
2018-09-22T05:51:23.090Z,99463.23
2018-09-22T05:53:51.391Z,99462.48
2018-09-22T05:56:19.779Z,99460.33
2018-09-22T05:58:48.063Z,99459.48
2018-09-22T06:01:16.359Z,99459.36
2018-09-22T06:03:44.820Z,99462.48
2018-09-22T06:06:13.054Z,99459.48
2018-09-22T06:08:41.387Z,99458.62
2018-09-22T06:11:09.691Z,99465.75
2018-09-22T06:13:37.967Z,99467.90
2018-09-22T06:16:07.189Z,99467.08
2018-09-22T06:18:35.499Z,99464.89
2018-09-22T06:21:05.304Z,99461.88
2018-09-22T06:23:33.732Z,99460.55
2018-09-22T06:26:01.986Z,99464.14
2018-09-22T06:28:30.259Z,99467.19
2018-09-22T06:30:58.570Z,99466.80
2018-09-22T06:33:26.967Z,99457.05
2018-09-22T06:35:55.347Z,99453.92
2018-09-22T06:38:23.662Z,99445.00
2018-09-22T06:40:51.995Z,99434.98
2018-09-22T06:43:20.343Z,99426.55
2018-09-22T06:45:48.718Z,99444.14
2018-09-22T06:48:17.002Z,99437.16
2018-09-22T06:50:45.307Z,99437.52
2018-09-22T06:53:13.687Z,99429.67
2018-09-22T06:55:42.008Z,99434.51
2018-09-22T06:58:10.347Z,99450.30
2018-09-22T07:00:39.319Z,99440.75
2018-09-22T07:03:08.735Z,99451.74
2018-09-22T07:05:37.028Z,99457.05
2018-09-22T07:08:05.335Z,99456.19
2018-09-22T07:10:33.650Z,99455.33
2018-09-22T07:13:02.024Z,99458.38
2018-09-22T07:15:30.411Z,99462.70
2018-09-22T07:17:58.771Z,99465.25
2018-09-22T07:20:27.077Z,99467.55
2018-09-22T07:23:26.470Z,99466.22
2018-09-22T07:25:54.760Z,99460.80
2018-09-22T07:28:23.053Z,99466.46
2018-09-22T07:30:51.444Z,99470.36
2018-09-22T07:33:19.666Z,99471.93
2018-09-22T07:35:48.098Z,99473.64
2018-09-22T07:38:16.415Z,99478.09
2018-09-22T07:40:44.818Z,99473.64
2018-09-22T07:43:13.967Z,99475.33
2018-09-22T07:45:42.374Z,99478.34
2018-09-22T07:48:10.640Z,99491.59
2018-09-22T07:50:39.035Z,99499.83
2018-09-22T07:53:07.355Z,99508.25
2018-09-22T07:55:35.687Z,99501.27
2018-09-22T07:58:03.987Z,99504.17
2018-09-22T08:00:32.417Z,99501.91
2018-09-22T08:03:00.654Z,99502.15
2018-09-22T08:05:29.045Z,99503.75
2018-09-22T08:07:57.339Z,99501.92
2018-09-22T08:10:25.670Z,99501.91
2018-09-22T08:12:54.010Z,99491.98
2018-09-22T08:15:22.322Z,99486.68
2018-09-22T08:17:50.607Z,99506.97
2018-09-22T08:20:18.919Z,99514.35
2018-09-22T08:22:47.247Z,99508.31
2018-09-22T08:25:15.602Z,99510.25
2018-09-22T08:27:43.851Z,99508.00
2018-09-22T08:30:12.138Z,99513.11
2018-09-22T08:32:40.487Z,99516.52
2018-09-22T08:35:08.903Z,99530.14
2018-09-22T08:37:37.225Z,99521.70
2018-09-22T08:40:05.591Z,99526.55
2018-09-22T08:42:33.967Z,99519.41
2018-09-22T08:45:02.252Z,99509.64
2018-09-22T08:47:30.597Z,99505.08
2018-09-22T08:49:58.932Z,99510.86
2018-09-22T08:52:27.219Z,99504.10
2018-09-22T08:54:55.914Z,99503.52
2018-09-22T08:57:24.275Z,99504.62
2018-09-22T08:59:52.607Z,99503.09
2018-09-22T09:02:20.899Z,99505.52
2018-09-22T09:04:50.287Z,99503.72
2018-09-22T09:07:18.610Z,99486.26
2018-09-22T09:09:46.914Z,99490.51
2018-09-22T09:12:15.257Z,99491.28
2018-09-22T09:14:43.744Z,99477.20
2018-09-22T09:17:12.157Z,99479.64
2018-09-22T09:19:40.354Z,99484.66
2018-09-22T09:22:08.690Z,99476.69
2018-09-22T09:24:36.993Z,99475.99
2018-09-22T09:27:05.481Z,99479.75
2018-09-22T09:29:33.859Z,99497.28
2018-09-22T09:32:02.191Z,99506.09
2018-09-22T09:34:30.466Z,99506.70
2018-09-22T09:36:58.868Z,99504.33
2018-09-22T09:39:27.208Z,99503.75
2018-09-22T09:41:55.675Z,99495.16
2018-09-22T09:44:24.067Z,99482.07
2018-09-22T09:46:53.010Z,99459.52
2018-09-22T09:49:21.448Z,99457.23
2018-09-22T09:51:49.871Z,99456.97
2018-09-22T09:54:18.276Z,99457.96
2018-09-22T09:56:46.651Z,99461.59
2018-09-22T09:59:15.088Z,99455.58
2018-09-22T10:01:43.448Z,99454.38
2018-09-22T10:04:11.862Z,99449.56
2018-09-22T10:06:40.211Z,99429.09
2018-09-22T10:09:09.484Z,99429.09
2018-09-22T10:11:37.899Z,99424.24
2018-09-22T10:14:06.246Z,99430.77
2018-09-22T10:16:34.558Z,99435.88
2018-09-22T10:19:02.937Z,99446.90
2018-09-22T10:21:31.270Z,99444.86
2018-09-22T10:23:59.619Z,99451.13
2018-09-22T10:26:28.129Z,99451.25
2018-09-22T10:28:56.555Z,99444.98
2018-09-22T10:31:24.891Z,99428.90
2018-09-22T10:33:53.262Z,99429.86
2018-09-22T10:36:21.591Z,99412.65
2018-09-22T10:38:49.919Z,99419.17
2018-09-22T10:41:18.342Z,99406.02
2018-09-22T10:43:46.666Z,99407.06
2018-09-22T10:46:14.963Z,99412.09
2018-09-22T10:48:43.285Z,99408.64
2018-09-22T10:51:11.614Z,99405.70
2018-09-22T10:53:40.053Z,99413.67
2018-09-22T10:56:08.562Z,99411.45
2018-09-22T10:58:36.985Z,99412.69
2018-09-22T11:01:05.362Z,99412.20
2018-09-22T11:03:33.779Z,99412.81
2018-09-22T11:06:02.247Z,99406.37
2018-09-22T11:08:30.654Z,99402.16
2018-09-22T11:10:59.090Z,99398.16
2018-09-22T11:13:27.491Z,99399.48
2018-09-22T11:15:55.914Z,99405.65
2018-09-22T11:18:24.243Z,99406.02
2018-09-22T11:20:52.566Z,99413.39
2018-09-22T11:23:20.951Z,99410.38
2018-09-22T11:25:49.254Z,99413.64
2018-09-22T11:28:17.769Z,99411.58
2018-09-22T11:30:46.142Z,99408.06
2018-09-22T11:33:14.567Z,99404.07
2018-09-22T11:35:42.960Z,99396.69
2018-09-22T11:38:11.326Z,99401.31
2018-09-22T11:40:39.751Z,99406.36
2018-09-22T11:43:08.208Z,99404.18
2018-09-22T11:45:36.616Z,99404.91
2018-09-22T11:48:06.017Z,99396.58
2018-09-22T11:50:34.416Z,99386.92
2018-09-22T11:53:02.890Z,99380.28
2018-09-22T11:55:31.203Z,99370.98
2018-09-22T11:57:59.787Z,99368.79
2018-09-22T12:00:28.078Z,99377.97
2018-09-22T12:02:56.614Z,99373.27
2018-09-22T12:05:25.175Z,99379.20
2018-09-22T12:07:53.526Z,99379.68
2018-09-22T12:10:21.851Z,99390.66
2018-09-22T12:12:50.134Z,99384.49
2018-09-22T12:15:18.467Z,99385.72
2018-09-22T12:17:46.917Z,99387.05
2018-09-22T12:20:15.319Z,99374.36
2018-09-22T12:22:43.738Z,99370.72
2018-09-22T12:25:12.081Z,99375.42
2018-09-22T12:27:40.469Z,99378.93
2018-09-22T12:30:08.803Z,99366.98
2018-09-22T12:32:37.091Z,99369.77
2018-09-22T12:35:06.246Z,99368.42
2018-09-22T12:37:34.615Z,99368.42
2018-09-22T12:40:02.935Z,99364.81
2018-09-22T12:42:31.271Z,99361.77
2018-09-22T12:44:59.562Z,99358.41
2018-09-22T12:47:27.955Z,99358.63
2018-09-22T12:49:56.283Z,99362.86
2018-09-22T12:52:24.911Z,99356.95
2018-09-22T12:54:53.198Z,99361.41
2018-09-22T12:57:21.577Z,99363.95
2018-09-22T12:59:49.985Z,99363.09
2018-09-22T13:02:18.264Z,99360.95
2018-09-22T13:04:46.579Z,99359.36
2018-09-22T13:07:14.924Z,99356.73
2018-09-22T13:09:43.252Z,99357.06
2018-09-22T13:12:11.559Z,99356.11
2018-09-22T13:14:39.899Z,99355.50
2018-09-22T13:17:08.189Z,99353.22
2018-09-22T13:19:36.495Z,99349.70
2018-09-22T13:22:04.793Z,99346.78
2018-09-22T13:24:33.125Z,99329.28
2018-09-22T13:27:01.423Z,99320.58
2018-09-22T13:29:29.746Z,99333.48
2018-09-22T13:31:58.256Z,99325.77
2018-09-22T13:34:26.632Z,99322.26
2018-09-22T13:36:54.911Z,99314.16
2018-09-22T13:39:23.235Z,99318.39
2018-09-22T13:41:51.534Z,99319.93
2018-09-22T13:44:19.875Z,99329.95
2018-09-22T13:46:48.178Z,99338.55
2018-09-22T13:49:16.526Z,99346.64
2018-09-22T13:51:45.076Z,99346.25
2018-09-22T13:54:13.423Z,99341.41
2018-09-22T13:56:41.753Z,99341.53
2018-09-22T13:59:10.115Z,99353.49
2018-09-22T14:01:38.459Z,99364.11
2018-09-22T14:04:06.996Z,99376.07
2018-09-22T14:06:35.295Z,99382.36
2018-09-22T14:09:04.967Z,99385.99
2018-09-22T14:11:33.259Z,99395.77
2018-09-22T14:14:01.575Z,99398.89
2018-09-22T14:16:29.915Z,99395.38
2018-09-22T14:18:58.420Z,99411.09
2018-09-22T14:21:26.769Z,99407.34
2018-09-22T14:23:55.070Z,99405.28
2018-09-22T14:26:23.361Z,99396.45
2018-09-22T14:28:51.655Z,99382.82
2018-09-22T14:31:19.935Z,99375.80
2018-09-22T14:33:48.206Z,99355.05
2018-09-22T14:36:16.597Z,99343.92
2018-09-22T14:38:45.672Z,99354.43
2018-09-22T14:41:14.017Z,99362.52
2018-09-22T14:43:42.517Z,99359.04
2018-09-22T14:46:10.814Z,99354.31
2018-09-22T14:48:39.130Z,99357.09
2018-09-22T14:51:07.575Z,99350.08
2018-09-22T14:53:35.860Z,99347.19
2018-09-22T14:56:04.272Z,99342.73
2018-09-22T14:58:32.619Z,99348.39
2018-09-22T15:01:01.023Z,99356.83
2018-09-22T15:03:30.716Z,99357.34
2018-09-22T15:05:59.187Z,99368.55
2018-09-22T15:08:27.612Z,99376.02
2018-09-22T15:10:55.956Z,99365.28
2018-09-22T15:13:24.298Z,99360.32
2018-09-22T15:15:52.847Z,99352.73
2018-09-22T15:18:21.163Z,99347.90
2018-09-22T15:20:49.768Z,99366.61
2018-09-22T15:23:18.515Z,99369.97
2018-09-22T15:25:46.967Z,99370.83
2018-09-22T15:28:15.322Z,99362.72
2018-09-22T15:30:43.711Z,99358.39
2018-09-22T15:33:12.081Z,99346.05
2018-09-22T15:35:40.409Z,99359.45
2018-09-22T15:38:08.742Z,99364.28
2018-09-22T15:40:37.126Z,99366.55
2018-09-22T15:43:05.492Z,99368.86
2018-09-22T15:45:33.966Z,99356.56
2018-09-22T15:48:02.227Z,99357.89
2018-09-22T15:50:30.655Z,99360.55
2018-09-22T15:52:58.974Z,99347.47
2018-09-22T15:55:27.315Z,99345.67
2018-09-22T15:57:55.658Z,99337.36
2018-09-22T16:00:24.076Z,99340.02
2018-09-22T16:02:52.430Z,99336.50
2018-09-22T16:05:20.778Z,99327.80
2018-09-22T16:07:49.195Z,99336.36
2018-09-22T16:10:17.575Z,99349.16
2018-09-22T16:12:45.873Z,99347.95
2018-09-22T16:15:14.164Z,99353.84
2018-09-22T16:17:42.559Z,99356.12
2018-09-22T16:20:10.920Z,99358.77
2018-09-22T16:22:39.263Z,99362.37
2018-09-22T16:25:07.936Z,99362.60
2018-09-22T16:27:36.486Z,99367.56
2018-09-22T16:30:05.211Z,99368.03
2018-09-22T16:32:33.568Z,99359.68
2018-09-22T16:35:02.121Z,99353.55
2018-09-22T16:37:30.396Z,99344.38
2018-09-22T16:39:58.790Z,99347.86
2018-09-22T16:42:27.239Z,99353.05
2018-09-22T16:44:55.667Z,99338.95
2018-09-22T16:47:23.979Z,99334.12
2018-09-22T16:49:52.267Z,99345.59
2018-09-22T16:52:20.553Z,99347.86
2018-09-22T16:54:48.836Z,99334.70
2018-09-22T16:57:17.295Z,99338.69
2018-09-22T16:59:45.585Z,99334.23
2018-09-22T17:02:14.028Z,99341.84
2018-09-22T17:04:42.383Z,99334.82
2018-09-22T17:07:10.697Z,99333.03
2018-09-22T17:09:39.209Z,99336.53
2018-09-22T17:12:07.510Z,99325.53
2018-09-22T17:14:35.798Z,99319.38
2018-09-22T17:17:04.091Z,99327.57
2018-09-22T17:19:32.382Z,99334.20
2018-09-22T17:22:00.685Z,99319.26
2018-09-22T17:24:29.007Z,99312.23
2018-09-22T17:26:57.595Z,99312.23
2018-09-22T17:29:25.966Z,99312.23
2018-09-22T17:31:54.300Z,99315.39
2018-09-22T17:34:22.601Z,99322.03
2018-09-22T17:36:51.031Z,99320.94
2018-09-22T17:39:19.357Z,99319.49
2018-09-22T17:41:47.731Z,99317.19
2018-09-22T17:44:16.129Z,99320.70
2018-09-22T17:46:44.455Z,99321.64
2018-09-22T17:49:12.761Z,99315.25
2018-09-22T17:51:41.062Z,99311.38
2018-09-22T17:54:09.387Z,99305.72
2018-09-22T17:56:37.722Z,99311.97
2018-09-22T17:59:06.671Z,99322.59
2018-09-22T18:01:35.088Z,99316.42
2018-09-22T18:04:03.475Z,99328.87
2018-09-22T18:06:31.826Z,99320.52
2018-09-22T18:09:00.178Z,99326.21
2018-09-22T18:11:28.491Z,99327.03
2018-09-22T18:13:56.798Z,99326.21
2018-09-22T18:16:25.235Z,99331.98
2018-09-22T18:18:53.579Z,99323.30
2018-09-22T18:21:21.975Z,99318.95
2018-09-22T18:23:50.298Z,99308.81
2018-09-22T18:26:18.627Z,99325.20
2018-09-22T18:28:46.945Z,99323.88
2018-09-22T18:31:15.393Z,99329.69
2018-09-22T18:33:43.759Z,99331.95
2018-09-22T18:36:12.094Z,99331.25
2018-09-22T18:38:40.423Z,99335.23
2018-09-22T18:41:08.733Z,99338.82
2018-09-22T18:43:37.106Z,99330.39
2018-09-22T18:46:05.482Z,99343.66
2018-09-22T18:48:33.822Z,99338.82
2018-09-22T18:51:03.054Z,99346.42
2018-09-22T18:53:31.391Z,99342.56
2018-09-22T18:55:59.822Z,99349.08
2018-09-22T18:58:28.125Z,99340.84
2018-09-22T19:00:56.418Z,99332.89
2018-09-22T19:03:24.712Z,99324.58
2018-09-22T19:05:53.072Z,99337.84
2018-09-22T19:08:21.395Z,99338.78
2018-09-22T19:10:49.767Z,99344.20
2018-09-22T19:13:22.626Z,99350.37
2018-09-22T19:15:52.013Z,99349.04
2018-09-22T19:18:28.853Z,99340.73
2018-09-22T19:21:08.763Z,99337.69
2018-09-22T19:23:38.452Z,99352.66
2018-09-22T19:26:11.513Z,99347.56
2018-09-22T19:28:44.427Z,99350.21
2018-09-22T19:31:16.577Z,99335.27
2018-09-22T19:33:51.439Z,99338.39
2018-09-22T19:36:21.788Z,99340.30
2018-09-22T19:38:56.535Z,99337.45
2018-09-22T19:41:29.555Z,99332.27
2018-09-22T19:44:10.838Z,99326.10
2018-09-22T19:46:43.976Z,99329.61
2018-09-22T19:49:22.966Z,99320.06
2018-09-22T19:51:56.977Z,99330.20
2018-09-22T19:54:25.502Z,99333.79
2018-09-22T19:56:53.947Z,99331.52
2018-09-22T19:59:22.421Z,99323.18
2018-09-22T20:01:50.759Z,99327.16
2018-09-22T20:04:19.298Z,99331.64
2018-09-22T20:06:47.772Z,99323.18
2018-09-22T20:09:16.284Z,99317.17
2018-09-22T20:11:44.861Z,99316.67
2018-09-22T20:14:13.225Z,99313.55
2018-09-22T20:16:41.797Z,99296.42
2018-09-22T20:19:11.079Z,99304.38
2018-09-22T20:21:39.547Z,99311.01
2018-09-22T20:24:08.053Z,99313.78
2018-09-22T20:26:36.459Z,99308.47
2018-09-22T20:29:05.156Z,99306.87
2018-09-22T20:31:33.622Z,99311.71
2018-09-22T20:34:02.067Z,99318.92
2018-09-22T20:36:30.434Z,99310.97
2018-09-22T20:38:58.927Z,99296.03
2018-09-22T20:41:27.503Z,99290.34
2018-09-22T20:43:56.003Z,99299.73
2018-09-22T20:46:24.498Z,99294.44
2018-09-22T20:48:52.982Z,99290.92
2018-09-22T20:51:21.441Z,99291.55
2018-09-22T20:53:50.181Z,99282.85
2018-09-22T20:58:46.274Z,99293.92
2018-09-22T21:01:14.826Z,99283.44
2018-09-22T21:03:44.055Z,99271.16
2018-09-22T21:06:12.595Z,99266.79
2018-09-22T21:08:41.034Z,99265.08
2018-09-22T21:11:09.451Z,99265.20
2018-09-22T21:13:37.911Z,99253.37
2018-09-22T21:16:06.340Z,99257.36
2018-09-22T21:18:34.706Z,99256.97
2018-09-22T21:21:03.042Z,99251.20
2018-09-22T21:23:31.440Z,99245.51
2018-09-22T21:26:00.143Z,99237.67
2018-09-22T21:28:28.503Z,99242.50
2018-09-22T21:30:57.115Z,99232.38
2018-09-22T21:33:25.475Z,99223.59
2018-09-22T21:35:53.775Z,99217.55
2018-09-22T21:38:22.103Z,99222.47
2018-09-22T21:40:50.383Z,99225.13
2018-09-22T21:43:18.904Z,99219.58
2018-09-22T21:45:47.342Z,99212.95
2018-09-22T21:48:15.899Z,99207.66
2018-09-22T21:50:44.182Z,99209.45
2018-09-22T21:53:12.480Z,99217.41
2018-09-22T21:55:40.847Z,99219.31
2018-09-22T21:58:09.220Z,99218.84
2018-09-22T22:00:37.620Z,99209.22
2018-09-22T22:03:05.940Z,99205.83
2018-09-22T22:05:34.259Z,99211.02
2018-09-22T22:08:02.640Z,99214.63
2018-09-22T22:10:30.987Z,99217.75
2018-09-22T22:12:59.340Z,99209.80
2018-09-22T22:15:27.656Z,99207.27
2018-09-22T22:17:55.942Z,99206.41
2018-09-22T22:20:24.258Z,99207.27
2018-09-22T22:22:52.527Z,99197.98
2018-09-22T22:25:20.845Z,99194.95
2018-09-22T22:27:49.222Z,99192.06
2018-09-22T22:30:17.520Z,99183.64
2018-09-22T22:32:45.890Z,99180.14
2018-09-22T22:35:14.254Z,99169.66
2018-09-22T22:37:42.537Z,99163.62
2018-09-22T22:40:10.850Z,99156.99
2018-09-22T22:42:39.140Z,99152.16
2018-09-22T22:45:07.443Z,99149.52
2018-09-22T22:47:35.722Z,99152.16
2018-09-22T22:50:04.165Z,99143.00
2018-09-22T22:52:32.454Z,99150.48
2018-09-22T22:55:00.779Z,99150.72
2018-09-22T22:57:29.055Z,99153.37
2018-09-22T22:59:57.377Z,99150.33
2018-09-22T23:02:25.707Z,99159.02
2018-09-22T23:04:54.251Z,99163.59
2018-09-22T23:07:22.662Z,99152.63
2018-09-22T23:09:50.982Z,99145.89
2018-09-22T23:12:19.271Z,99137.94
2018-09-22T23:14:47.651Z,99136.73
2018-09-22T23:17:15.934Z,99131.91
2018-09-22T23:19:44.290Z,99128.91
2018-09-22T23:22:12.671Z,99125.87
2018-09-22T23:24:40.975Z,99119.01
2018-09-22T23:27:09.280Z,99122.86
2018-09-22T23:29:37.583Z,99119.36
2018-09-22T23:32:05.899Z,99104.17
2018-09-22T23:34:34.223Z,99108.64
2018-09-22T23:37:02.510Z,99100.70
2018-09-22T23:39:30.854Z,99095.39
2018-09-22T23:41:59.133Z,99089.71
2018-09-22T23:44:27.470Z,99080.91
2018-09-22T23:46:55.843Z,99080.91
2018-09-22T23:49:24.133Z,99085.39
2018-09-22T23:51:52.399Z,99090.30
2018-09-22T23:54:20.727Z,99093.34
2018-09-22T23:56:49.022Z,99087.66
2018-09-22T23:59:17.359Z,99088.63
